Hauptseite
METAR-TAF:

METAR-TAF

Flughäfen :

Thule Air Base

Thule, Grönland

Breite: 76-32N, Länge: 068-42W, Höhe: 77 m

Beobachtung

Neuester Wetterbericht von vor 13 Minuten, um 02:56 UTC
Wind 11 kt aus Süd/Südost
Temperatur 6°C
Luftfeuchtigkeit 87%
Luftdruck 1006 hPa
Sichtweite 10 km oder mehr
Leicht bewölkt in der Höhe von 5000 ft

METAR: BGTL 200256Z AUTO 15011KT 9999 FEW050 06/04 A2970 RMK AO2 SLP041 T00610039 52005 PNO TSNO $

Zeit: 00:09 (03:09 UTC)

Prognose

Neuester Wetterbericht von vor 2 Stunden und 9 Minuten, um 01:00 UTC
Gültige Prognose vom 20 um 01 UTC bis 21 um 07 UTC
Wind 9 kt aus Ost
Sichtweite 10 km oder mehr
Aufgelockert bewölkt in der Höhe von 2500 ft
Zeitweise
vom 20 um 01 UTC bis 20 um 12 UTC
Wind 20 kt aus Süd/Südost, Böen bis zu 30 kt

TAF: BGTL 200100Z 2001/2107 10009KT 9999 SCT025 QNH2960INS TEMPO 2001/2012 16020G30KT 510003 TX07/2017Z TN03/2009Z

Wetterbeobachtungen und Prognosen von mehr als 4000 Flughäfen (METAR und TAF Bericht).

Die verfügbaren Stationen werden durch gelbe und rote Markierungen auf der Karte dargestellt.

Führen Sie die Maus auf sie, um den Namen der Station zu sehen.

Darauf klicken, um die Beobachtung von Wetterbeobachtungen und Prognosen zu sehen.

Um die Karte zu ändern : klicken Sie auf den grünen Tasten mit einem schwarzen Kreuz Zum Vergrößern, auf den grünen Button mit einem Gedankenstrich zu verkleinern, oder auf die grünen Pfeile für benachbarte Karten.


METAR-TAF: